createdAt,value
2024-01-26T00:00:52.215Z,44.25
2024-01-26T00:03:27.723Z,44.58
2024-01-26T00:06:03.451Z,43.30
2024-01-26T00:08:37.479Z,43.00
2024-01-26T00:11:11.362Z,43.72
2024-01-26T00:13:45.280Z,45.17
2024-01-26T00:16:19.684Z,42.45
2024-01-26T00:18:53.311Z,43.13
2024-01-26T00:21:30.668Z,41.72
2024-01-26T00:24:06.078Z,43.50
2024-01-26T00:26:39.664Z,44.00
2024-01-26T00:29:13.166Z,45.25
2024-01-26T00:31:47.478Z,44.95
2024-01-26T00:34:21.800Z,43.15
2024-01-26T00:36:58.172Z,45.78
2024-01-26T00:39:31.684Z,44.15
2024-01-26T00:42:07.049Z,44.35
2024-01-26T00:44:41.247Z,44.13
2024-01-26T00:47:16.076Z,45.08
2024-01-26T00:49:53.301Z,44.28
2024-01-26T00:55:02.924Z,42.50
2024-01-26T00:57:36.661Z,41.58
2024-01-26T01:00:11.484Z,43.58
2024-01-26T01:02:46.717Z,45.20
2024-01-26T01:05:20.573Z,60.05
2024-01-26T01:07:57.041Z,59.13
2024-01-26T01:10:31.643Z,54.28
2024-01-26T01:13:07.132Z,50.28
2024-01-26T01:15:42.586Z,46.13
2024-01-26T01:18:16.695Z,44.28
2024-01-26T01:20:50.542Z,44.42
2024-01-26T01:23:26.762Z,49.22
2024-01-26T01:26:00.576Z,49.92
2024-01-26T01:28:37.081Z,47.70
2024-01-26T01:31:10.977Z,50.92
2024-01-26T01:33:46.265Z,54.05
2024-01-26T01:36:20.651Z,54.58
2024-01-26T01:38:57.078Z,83.35
2024-01-26T01:41:30.892Z,86.37
2024-01-26T01:44:04.515Z,163.45
2024-01-26T01:46:38.277Z,246.23
2024-01-26T01:49:12.182Z,902.38
2024-01-26T01:51:50.638Z,979.75
2024-01-26T01:54:28.627Z,766.80
2024-01-26T01:57:03.912Z,841.88
2024-01-26T01:59:39.835Z,550.05
2024-01-26T02:02:13.615Z,959.55
2024-01-26T02:04:47.595Z,381.80
2024-01-26T02:07:21.152Z,353.00
2024-01-26T02:09:57.021Z,999.90
2024-01-26T02:12:31.024Z,999.90
2024-01-26T02:15:05.568Z,999.90
2024-01-26T02:17:42.295Z,999.90
2024-01-26T02:20:16.264Z,999.90
2024-01-26T02:22:49.819Z,999.90
2024-01-26T02:25:25.832Z,999.90
2024-01-26T02:27:59.379Z,999.90
2024-01-26T02:30:36.204Z,999.90
2024-01-26T02:33:10.744Z,999.90
2024-01-26T02:35:44.851Z,999.90
2024-01-26T02:38:19.193Z,999.90
2024-01-26T02:40:55.289Z,999.90
2024-01-26T02:43:28.752Z,999.90
2024-01-26T02:46:02.596Z,999.90
2024-01-26T02:48:36.826Z,999.90
2024-01-26T02:51:11.432Z,752.42
2024-01-26T02:53:46.947Z,999.90
2024-01-26T02:56:26.313Z,999.90
2024-01-26T02:58:59.978Z,999.90
2024-01-26T03:01:35.080Z,999.90
2024-01-26T03:04:09.192Z,227.23
2024-01-26T03:06:42.799Z,848.70
2024-01-26T03:09:16.451Z,878.85
2024-01-26T03:11:52.835Z,609.65
2024-01-26T03:14:27.509Z,610.10
2024-01-26T03:17:01.193Z,871.20
2024-01-26T03:19:38.088Z,999.90
2024-01-26T03:22:11.879Z,976.17
2024-01-26T03:24:49.775Z,999.90
2024-01-26T03:27:28.080Z,913.60
2024-01-26T03:30:02.041Z,853.35
2024-01-26T03:32:36.762Z,637.92
2024-01-26T03:35:12.039Z,949.65
2024-01-26T03:37:46.136Z,999.90
2024-01-26T03:40:21.187Z,999.90
2024-01-26T03:42:58.614Z,999.90
2024-01-26T03:45:33.964Z,999.90
2024-01-26T03:48:09.445Z,968.33
2024-01-26T03:50:47.215Z,970.05
2024-01-26T03:53:21.021Z,884.58
2024-01-26T03:55:54.555Z,734.00
2024-01-26T03:58:30.327Z,584.33
2024-01-26T04:01:04.440Z,831.60
2024-01-26T04:03:38.697Z,800.58
2024-01-26T04:06:12.537Z,728.05
2024-01-26T04:08:46.109Z,772.50
2024-01-26T04:11:20.529Z,720.42
2024-01-26T04:13:56.435Z,679.13
2024-01-26T04:16:30.308Z,664.42
2024-01-26T04:19:04.451Z,752.58
2024-01-26T04:21:38.865Z,753.40
2024-01-26T04:24:13.945Z,789.97
2024-01-26T04:26:47.661Z,777.05
2024-01-26T04:29:23.078Z,591.60
2024-01-26T04:31:56.555Z,563.13
2024-01-26T04:34:30.120Z,616.85
2024-01-26T04:37:03.452Z,652.30
2024-01-26T04:39:36.910Z,710.42
2024-01-26T04:42:11.083Z,682.58
2024-01-26T04:44:47.952Z,609.88
2024-01-26T04:47:21.518Z,749.75
2024-01-26T04:49:55.601Z,767.08
2024-01-26T04:52:29.286Z,741.03
2024-01-26T04:55:02.769Z,775.28
2024-01-26T04:57:36.668Z,786.85
2024-01-26T05:00:15.069Z,806.40
2024-01-26T05:02:49.594Z,842.10
2024-01-26T05:05:23.984Z,867.63
2024-01-26T05:07:57.436Z,877.03
2024-01-26T05:10:31.195Z,990.83
2024-01-26T05:13:05.314Z,999.90
2024-01-26T05:15:43.418Z,999.90
2024-01-26T05:18:17.254Z,999.90
2024-01-26T05:20:51.017Z,999.90
2024-01-26T05:23:25.290Z,999.90
2024-01-26T05:26:00.257Z,987.35
2024-01-26T05:28:35.100Z,963.22
2024-01-26T05:31:12.263Z,950.30
2024-01-26T05:33:46.499Z,933.53
2024-01-26T05:36:20.726Z,767.58
2024-01-26T05:38:54.502Z,791.63
2024-01-26T05:41:28.280Z,753.90
2024-01-26T05:44:02.395Z,810.47
2024-01-26T05:46:38.330Z,828.83
2024-01-26T05:49:12.410Z,793.67
2024-01-26T05:51:46.017Z,789.22
2024-01-26T05:54:19.657Z,790.15
2024-01-26T05:56:53.699Z,821.20
2024-01-26T05:59:27.628Z,846.85
2024-01-26T06:02:05.665Z,837.45
2024-01-26T06:04:39.872Z,819.47
2024-01-26T06:07:15.799Z,784.38
2024-01-26T06:09:49.723Z,731.47
2024-01-26T06:12:25.337Z,720.80
2024-01-26T06:15:03.100Z,696.60
2024-01-26T06:17:45.457Z,675.55
2024-01-26T06:20:19.291Z,639.95
2024-01-26T06:25:52.863Z,708.50
2024-01-26T06:28:47.401Z,691.13
2024-01-26T06:31:20.791Z,708.00
2024-01-26T06:36:46.048Z,756.95
2024-01-26T06:39:19.773Z,762.40
2024-01-26T06:41:54.474Z,768.78
2024-01-26T06:47:15.531Z,999.90
2024-01-26T06:49:58.626Z,999.90
2024-01-26T06:55:19.661Z,999.90
2024-01-26T07:03:49.380Z,986.25
2024-01-26T07:09:25.405Z,999.90
2024-01-26T07:12:01.729Z,999.90
2024-01-26T07:14:35.425Z,999.90
2024-01-26T07:19:55.407Z,810.45
2024-01-26T07:22:30.721Z,856.00
2024-01-26T07:25:04.183Z,875.25
2024-01-26T07:27:38.771Z,874.75
2024-01-26T07:30:13.163Z,847.22
2024-01-26T07:32:47.659Z,931.97
2024-01-26T07:35:27.269Z,855.83
2024-01-26T07:38:11.951Z,806.13
2024-01-26T07:40:47.446Z,837.90
2024-01-26T07:43:21.277Z,837.75
2024-01-26T07:45:55.228Z,851.25
2024-01-26T07:48:28.885Z,916.75
2024-01-26T07:51:02.462Z,960.17
2024-01-26T07:56:25.452Z,999.90
2024-01-26T07:58:59.717Z,973.90
2024-01-26T08:01:36.602Z,907.38
2024-01-26T08:04:10.789Z,816.72
2024-01-26T08:09:37.499Z,779.88
2024-01-26T08:14:58.767Z,817.63
2024-01-26T08:17:32.886Z,836.42
2024-01-26T08:20:12.476Z,941.60
2024-01-26T08:23:12.661Z,945.10
2024-01-26T08:25:56.696Z,976.55
2024-01-26T08:31:31.394Z,950.38
2024-01-26T08:34:05.262Z,964.33
2024-01-26T08:36:39.136Z,969.25
2024-01-26T08:39:14.588Z,961.65
2024-01-26T08:41:49.974Z,954.78
2024-01-26T08:47:15.029Z,996.85
2024-01-26T08:49:49.422Z,997.00
2024-01-26T08:52:24.133Z,999.90
2024-01-26T08:54:58.104Z,999.15
2024-01-26T08:57:33.799Z,999.90
2024-01-26T09:00:11.760Z,974.83
2024-01-26T09:02:46.249Z,999.90
2024-01-26T09:05:20.231Z,991.85
2024-01-26T09:07:53.835Z,983.88
2024-01-26T09:10:29.067Z,976.35
2024-01-26T09:13:05.885Z,983.70
2024-01-26T09:15:39.597Z,963.22
2024-01-26T09:18:13.375Z,998.08
2024-01-26T09:20:51.316Z,999.90
2024-01-26T09:23:25.160Z,999.90
2024-01-26T09:26:00.940Z,999.90
2024-01-26T09:28:37.450Z,999.90
2024-01-26T09:31:11.367Z,999.90
2024-01-26T09:33:45.327Z,999.90
2024-01-26T09:36:19.134Z,999.90
2024-01-26T09:38:53.349Z,999.90
2024-01-26T09:41:27.438Z,999.90
2024-01-26T09:44:04.696Z,999.90
2024-01-26T09:46:39.968Z,999.90
2024-01-26T09:49:14.874Z,999.90
2024-01-26T09:51:48.827Z,999.90
2024-01-26T09:54:26.033Z,999.90
2024-01-26T09:56:59.976Z,999.90
2024-01-26T09:59:36.248Z,999.90
2024-01-26T10:02:12.053Z,999.90
2024-01-26T10:04:46.418Z,999.90
2024-01-26T10:07:20.410Z,999.90
2024-01-26T10:09:55.620Z,999.90
2024-01-26T10:12:30.254Z,999.90
2024-01-26T10:15:13.122Z,999.90
2024-01-26T10:17:48.167Z,999.90
2024-01-26T10:20:23.631Z,999.90
2024-01-26T10:22:58.452Z,999.90
2024-01-26T10:25:33.266Z,999.90
2024-01-26T10:28:14.392Z,999.90
2024-01-26T10:30:54.296Z,999.90
2024-01-26T10:33:28.784Z,999.90
2024-01-26T10:36:05.987Z,999.90
2024-01-26T10:38:43.147Z,999.90
2024-01-26T10:41:23.746Z,999.90
2024-01-26T10:43:58.508Z,999.90
2024-01-26T10:46:34.559Z,868.75
2024-01-26T10:49:09.099Z,916.60
2024-01-26T10:51:44.029Z,830.08
2024-01-26T10:54:18.481Z,873.90
2024-01-26T10:56:52.288Z,912.92
2024-01-26T10:59:28.080Z,999.90
2024-01-26T11:02:04.935Z,998.83
2024-01-26T11:04:38.920Z,928.88
2024-01-26T11:07:13.634Z,931.42
2024-01-26T11:09:52.049Z,934.13
2024-01-26T11:12:29.105Z,999.90
2024-01-26T11:15:13.610Z,999.90
2024-01-26T11:17:56.090Z,999.90
2024-01-26T11:20:34.579Z,999.58
2024-01-26T11:23:11.248Z,973.13
2024-01-26T11:25:46.908Z,992.10
2024-01-26T11:28:21.861Z,992.90
2024-01-26T11:31:00.066Z,987.05
2024-01-26T11:33:44.282Z,980.30
2024-01-26T11:36:24.993Z,942.22
2024-01-26T11:38:59.991Z,987.70
2024-01-26T11:41:34.804Z,947.80
2024-01-26T11:44:13.943Z,938.15
2024-01-26T11:46:50.540Z,956.85
2024-01-26T11:49:26.174Z,978.78
2024-01-26T11:52:00.118Z,964.92
2024-01-26T11:54:34.120Z,994.13
2024-01-26T11:57:08.281Z,993.80
2024-01-26T11:59:42.402Z,999.90
2024-01-26T12:02:16.201Z,989.17
2024-01-26T12:04:52.526Z,984.58
2024-01-26T12:07:27.058Z,999.90
2024-01-26T12:10:01.027Z,978.42
2024-01-26T12:12:35.620Z,988.22
2024-01-26T12:15:11.196Z,974.55
2024-01-26T12:17:46.117Z,992.25
2024-01-26T12:20:24.023Z,996.13
2024-01-26T12:23:00.387Z,978.70
2024-01-26T12:25:34.403Z,972.45
2024-01-26T12:28:08.956Z,969.67
2024-01-26T12:30:48.697Z,967.95
2024-01-26T12:33:23.554Z,974.15
2024-01-26T12:36:03.377Z,994.22
2024-01-26T12:38:37.304Z,999.90
2024-01-26T12:41:10.864Z,999.90
2024-01-26T12:43:45.542Z,997.97
2024-01-26T12:46:19.834Z,971.10
2024-01-26T12:48:53.772Z,989.80
2024-01-26T12:51:31.902Z,965.10
2024-01-26T12:54:05.787Z,987.75
2024-01-26T12:56:39.729Z,985.38
2024-01-26T12:59:13.434Z,988.25
2024-01-26T13:01:48.341Z,973.33
2024-01-26T13:04:22.095Z,938.33
2024-01-26T13:06:59.181Z,961.88
2024-01-26T13:09:33.453Z,932.65
2024-01-26T13:12:07.543Z,937.72
2024-01-26T13:14:41.353Z,894.00
2024-01-26T13:17:15.003Z,915.92
2024-01-26T13:19:51.812Z,931.17
2024-01-26T13:22:31.226Z,931.47
2024-01-26T13:25:06.146Z,939.17
2024-01-26T13:27:40.052Z,888.75
2024-01-26T13:30:15.807Z,880.72
2024-01-26T13:32:50.576Z,899.72
2024-01-26T13:35:26.124Z,897.00
2024-01-26T13:38:03.714Z,883.55
2024-01-26T13:43:11.181Z,844.45
2024-01-26T13:45:45.537Z,841.65
2024-01-26T13:48:19.529Z,884.22
2024-01-26T13:50:55.157Z,886.97
2024-01-26T13:53:31.415Z,870.83
2024-01-26T13:56:05.655Z,891.17
2024-01-26T13:58:39.297Z,905.83
2024-01-26T14:01:16.883Z,904.78
2024-01-26T14:03:51.156Z,895.63
2024-01-26T14:06:25.298Z,874.15
2024-01-26T14:09:00.597Z,918.65
2024-01-26T14:11:36.518Z,900.00
2024-01-26T14:14:10.471Z,843.25
2024-01-26T14:16:45.210Z,877.80
2024-01-26T14:19:19.005Z,880.08
2024-01-26T14:21:54.585Z,872.97
2024-01-26T14:24:32.009Z,849.40
2024-01-26T14:27:06.104Z,866.10
2024-01-26T14:29:41.498Z,859.20
2024-01-26T14:32:15.369Z,948.20
2024-01-26T14:34:49.102Z,910.30
2024-01-26T14:37:23.789Z,888.45
2024-01-26T14:39:59.975Z,920.72
2024-01-26T14:42:34.634Z,866.17
2024-01-26T14:45:10.530Z,858.35
2024-01-26T14:47:45.401Z,868.63
2024-01-26T14:50:19.356Z,876.20
2024-01-26T14:52:52.976Z,895.85
2024-01-26T14:55:30.821Z,895.55
2024-01-26T14:58:06.318Z,859.00
2024-01-26T15:00:40.396Z,892.42
2024-01-26T15:03:15.401Z,911.35
2024-01-26T15:05:50.649Z,911.03
2024-01-26T15:10:44.845Z,906.85
2024-01-26T15:13:18.754Z,896.70
2024-01-26T15:15:53.090Z,865.58
2024-01-26T15:20:10.793Z,865.35
